Terminal Aerodrome Forecast
Issued by NWS

Home | Current Version | Previous Version | Graphics & Text | Print | Product List | Glossary On
Versions: 1 2 3 4 5 6 7 8 9 10 11 12 13 14
000
FTUS45 KGGW 211900 AAA
TAFSDY
TAF AMD
KSDY 211916Z 2119/2218 01013KT P6SM SCT080 BKN140
     FM220000 01012KT P6SM BKN080
      TEMPO 2202/2206 P6SM -TSRA BKN050CB
     FM220800 VRB05KT P6SM SCT080 BKN140
      AMD LTD TO CLD VIS AND WIND=

USA.gov is the U.S. government's official web portal to all federal, state and local government web resources and services.